Time,TemperatureF,DewpointF,PressureIn,WindDirection,WindDirectionDegrees,WindSpeedMPH,WindSpeedGustMPH,Humidity,HourlyPrecipIn,Conditions,Clouds,dailyrainin,SoftwareType,DateUTC
2013-02-08 00:00:00,39.2,36.5,24.80,SSW,211,0.0,1.0,90,0.00,,---,0.31,VWS V13.01,2013-02-08 08:00:00,
2013-02-08 00:06:00,39.2,36.5,24.80,SSW,202,0.0,1.0,90,0.00,,---,0.00,VWS V13.01,2013-02-08 08:06:00,
2013-02-08 00:11:00,39.1,36.4,24.80,SSW,211,0.0,0.0,90,0.00,,---,0.00,VWS V13.01,2013-02-08 08:11:00,
2013-02-08 00:15:00,39.0,36.3,24.80,SSW,211,0.0,0.0,90,0.00,,---,0.00,VWS V13.01,2013-02-08 08:15:00,
2013-02-08 00:20:00,39.0,36.3,24.80,SSW,211,0.0,0.0,90,0.00,,---,0.00,VWS V13.01,2013-02-08 08:20:00,
2013-02-08 00:25:00,38.9,36.2,24.80,SSW,211,0.0,0.0,90,0.00,,---,0.00,VWS V13.01,2013-02-08 08:25:00,
2013-02-08 00:30:00,38.8,36.1,24.80,SSW,211,0.0,0.0,90,0.00,,---,0.00,VWS V13.01,2013-02-08 08:30:00,
2013-02-08 00:35:00,38.8,36.1,24.80,SSW,211,0.0,0.0,90,0.00,,---,0.00,VWS V13.01,2013-02-08 08:35:00,
2013-02-08 00:40:00,38.8,36.1,24.80,SSW,211,0.0,0.0,90,0.00,,---,0.00,VWS V13.01,2013-02-08 08:40:00,
2013-02-08 00:45:00,38.9,36.2,24.80,SSW,211,0.0,0.0,90,0.00,,---,0.00,VWS V13.01,2013-02-08 08:45:00,
2013-02-08 00:50:00,38.9,36.2,24.80,SSW,211,0.0,0.0,90,0.00,,---,0.00,VWS V13.01,2013-02-08 08:50:00,
2013-02-08 00:56:00,39.0,36.3,24.80,SSW,211,0.0,0.0,90,0.00,,---,0.00,VWS V13.01,2013-02-08 08:56:00,
2013-02-08 01:00:00,39.2,36.5,24.80,SSW,211,0.0,0.0,90,0.00,,---,0.00,VWS V13.01,2013-02-08 09:00:00,
2013-02-08 01:01:00,39.2,36.5,24.80,SSW,211,0.0,0.0,90,0.00,,---,0.00,VWS V13.01,2013-02-08 09:01:00,
2013-02-08 01:06:00,39.3,36.6,24.80,SSW,211,0.0,1.0,90,0.00,,---,0.00,VWS V13.01,2013-02-08 09:06:00,
2013-02-08 01:11:00,39.5,36.8,24.80,SSW,211,0.0,1.0,90,0.00,,---,0.00,VWS V13.01,2013-02-08 09:11:00,
2013-02-08 01:16:00,39.6,37.2,24.80,SSW,211,0.0,1.0,91,0.00,,---,0.00,VWS V13.01,2013-02-08 09:16:00,
2013-02-08 01:21:00,39.8,37.4,24.80,SSW,211,0.0,1.0,91,0.00,,---,0.00,VWS V13.01,2013-02-08 09:21:00,
2013-02-08 01:25:00,40.1,37.7,24.79,SSW,211,0.0,1.0,91,0.00,,---,0.00,VWS V13.01,2013-02-08 09:25:00,
2013-02-08 01:30:00,40.5,38.1,24.77,SSW,211,0.0,1.0,91,0.00,,---,0.00,VWS V13.01,2013-02-08 09:30:00,
2013-02-08 01:35:00,40.7,38.3,24.76,SSW,211,0.0,1.0,91,0.00,,---,0.00,VWS V13.01,2013-02-08 09:35:00,
2013-02-08 01:40:00,40.9,38.5,24.76,SSW,211,0.0,1.0,91,0.00,,---,0.00,VWS V13.01,2013-02-08 09:40:00,
2013-02-08 01:45:00,41.0,38.6,24.73,SSW,211,0.0,1.0,91,0.00,,---,0.00,VWS V13.01,2013-02-08 09:45:00,
2013-02-08 01:50:00,41.1,38.7,24.73,SSW,211,0.0,1.0,91,0.01,,---,0.01,VWS V13.01,2013-02-08 09:50:00,
2013-02-08 01:55:00,41.2,38.8,21.39,SSW,211,0.0,1.0,91,0.01,,---,0.01,VWS V13.01,2013-02-08 09:55:00,
2013-02-08 02:00:00,41.3,38.9,21.38,SSW,211,0.0,1.0,91,0.01,,---,0.01,VWS V13.01,2013-02-08 10:00:00,
2013-02-08 02:05:00,41.2,38.5,24.71,SSW,211,0.0,0.0,90,0.01,,---,0.01,VWS V13.01,2013-02-08 10:05:00,
2013-02-08 02:10:00,41.2,38.5,24.71,SSW,211,0.0,0.0,90,0.01,,---,0.01,VWS V13.01,2013-02-08 10:10:00,
2013-02-08 02:15:00,41.1,38.4,24.71,SSW,211,0.0,0.0,90,0.01,,---,0.01,VWS V13.01,2013-02-08 10:15:00,
2013-02-08 02:20:00,41.1,38.4,24.71,SSW,211,0.0,0.0,90,0.01,,---,0.01,VWS V13.01,2013-02-08 10:20:00,
2013-02-08 02:25:00,41.1,38.4,24.71,SSW,211,0.0,1.0,90,0.01,,---,0.01,VWS V13.01,2013-02-08 10:25:00,
2013-02-08 02:30:00,41.1,38.4,24.70,SSW,211,0.0,1.0,90,0.01,,---,0.01,VWS V13.01,2013-02-08 10:30:00,
2013-02-08 02:35:00,41.1,38.4,24.70,SSW,211,0.0,1.0,90,0.01,,---,0.01,VWS V13.01,2013-02-08 10:35:00,
2013-02-08 02:40:00,41.1,38.4,24.71,SSW,211,0.0,1.0,90,0.01,,---,0.01,VWS V13.01,2013-02-08 10:40:00,
2013-02-08 02:45:00,41.2,38.5,24.70,SSW,211,0.0,1.0,90,0.01,,---,0.01,VWS V13.01,2013-02-08 10:45:00,
2013-02-08 02:50:00,41.2,38.5,24.70,SSW,211,0.0,1.0,90,0.01,,---,0.01,VWS V13.01,2013-02-08 10:50:00,
2013-02-08 02:55:00,41.1,38.4,24.70,SSW,211,0.0,1.0,90,0.01,,---,0.01,VWS V13.01,2013-02-08 10:55:00,
2013-02-08 03:00:00,41.1,38.4,24.70,SSW,211,0.0,1.0,90,0.01,,---,0.01,VWS V13.01,2013-02-08 11:00:00,
2013-02-08 03:05:00,41.1,38.4,24.70,SSW,211,0.0,0.0,90,0.00,,---,0.01,VWS V13.01,2013-02-08 11:05:00,
2013-02-08 03:10:00,41.1,38.4,24.70,SSW,211,0.0,0.0,90,0.00,,---,0.01,VWS V13.01,2013-02-08 11:10:00,
2013-02-08 03:15:00,41.0,38.3,24.70,SSW,211,0.0,0.0,90,0.00,,---,0.01,VWS V13.01,2013-02-08 11:15:00,
2013-02-08 03:20:00,41.0,38.3,24.70,SSW,211,0.0,0.0,90,0.00,,---,0.01,VWS V13.01,2013-02-08 11:20:00,
2013-02-08 03:25:00,40.9,38.2,24.70,SSW,211,0.0,0.0,90,0.00,,---,0.01,VWS V13.01,2013-02-08 11:25:00,
2013-02-08 03:30:00,40.9,38.2,24.69,SSW,211,0.0,0.0,90,0.00,,---,0.01,VWS V13.01,2013-02-08 11:30:00,
2013-02-08 03:35:00,40.8,38.1,24.69,SSW,211,0.0,0.0,90,0.00,,---,0.01,VWS V13.01,2013-02-08 11:35:00,
2013-02-08 03:40:00,40.7,38.0,24.69,SSW,211,0.0,0.0,90,0.00,,---,0.01,VWS V13.01,2013-02-08 11:40:00,
2013-02-08 03:45:00,40.6,37.9,24.69,SSW,211,0.0,0.0,90,0.00,,---,0.01,VWS V13.01,2013-02-08 11:45:00,
2013-02-08 03:50:00,40.5,37.8,24.69,SSW,211,0.0,0.0,90,0.00,,---,0.01,VWS V13.01,2013-02-08 11:50:00,
2013-02-08 03:55:00,40.4,37.7,24.68,SSW,211,0.0,0.0,90,0.00,,---,0.01,VWS V13.01,2013-02-08 11:55:00,
2013-02-08 04:00:00,40.2,37.5,24.68,SSW,211,0.0,0.0,90,0.00,,---,0.01,VWS V13.01,2013-02-08 12:00:00,
2013-02-08 04:05:00,40.0,37.3,24.69,SSW,211,0.0,0.0,90,0.00,,---,0.01,VWS V13.01,2013-02-08 12:05:00,
2013-02-08 04:10:00,39.8,37.1,24.68,SSW,211,0.0,0.0,90,0.00,,---,0.01,VWS V13.01,2013-02-08 12:10:00,
2013-02-08 04:15:00,39.7,37.0,24.68,SSW,211,0.0,0.0,90,0.00,,---,0.01,VWS V13.01,2013-02-08 12:15:00,
2013-02-08 04:20:00,39.5,36.8,24.68,SSW,211,0.0,0.0,90,0.00,,---,0.01,VWS V13.01,2013-02-08 12:20:00,
2013-02-08 04:25:00,39.3,36.3,24.68,SSW,211,0.0,0.0,89,0.00,,---,0.01,VWS V13.01,2013-02-08 12:25:00,
2013-02-08 04:30:00,39.1,36.4,24.68,SSW,211,0.0,0.0,90,0.00,,---,0.01,VWS V13.01,2013-02-08 12:30:00,
2013-02-08 04:35:00,38.9,36.2,24.67,SSW,211,0.0,0.0,90,0.00,,---,0.01,VWS V13.01,2013-02-08 12:35:00,
2013-02-08 04:40:00,38.8,36.1,24.68,SSW,211,0.0,0.0,90,0.00,,---,0.01,VWS V13.01,2013-02-08 12:40:00,
2013-02-08 04:45:00,38.7,36.0,24.67,SSW,211,0.0,0.0,90,0.00,,---,0.01,VWS V13.01,2013-02-08 12:45:00,
2013-02-08 04:50:00,38.5,35.8,24.68,SSW,211,0.0,0.0,90,0.00,,---,0.01,VWS V13.01,2013-02-08 12:50:00,
2013-02-08 04:55:00,38.4,35.7,24.68,SSW,211,0.0,0.0,90,0.00,,---,0.01,VWS V13.01,2013-02-08 12:55:00,
2013-02-08 05:00:00,38.2,35.5,24.67,SSW,211,0.0,0.0,90,0.00,,---,0.01,VWS V13.01,2013-02-08 13:00:00,
2013-02-08 05:05:00,38.1,35.4,24.67,SSW,211,0.0,0.0,90,0.00,,---,0.01,VWS V13.01,2013-02-08 13:05:00,
2013-02-08 05:10:00,38.1,35.4,24.68,SSW,211,0.0,0.0,90,0.00,,---,0.01,VWS V13.01,2013-02-08 13:10:00,
2013-02-08 05:15:00,38.0,35.3,24.68,SSW,211,0.0,0.0,90,0.00,,---,0.01,VWS V13.01,2013-02-08 13:15:00,
2013-02-08 05:20:00,38.0,35.3,24.68,SSW,211,0.0,0.0,90,0.00,,---,0.01,VWS V13.01,2013-02-08 13:20:00,
2013-02-08 05:25:00,38.0,35.3,24.67,SSW,211,0.0,0.0,90,0.00,,---,0.01,VWS V13.01,2013-02-08 13:25:00,
2013-02-08 05:30:00,37.9,35.2,24.67,SSW,211,0.0,0.0,90,0.00,,---,0.01,VWS V13.01,2013-02-08 13:30:00,
2013-02-08 05:35:00,37.9,35.2,24.67,SSW,211,0.0,0.0,90,0.00,,---,0.01,VWS V13.01,2013-02-08 13:35:00,
2013-02-08 05:40:00,37.8,35.1,24.66,SSW,211,0.0,0.0,90,0.00,,---,0.01,VWS V13.01,2013-02-08 13:40:00,
2013-02-08 05:45:00,37.8,35.1,24.66,SSW,211,0.0,0.0,90,0.00,,---,0.01,VWS V13.01,2013-02-08 13:45:00,
2013-02-08 05:50:00,37.7,35.0,24.65,SSW,211,0.0,0.0,90,0.00,,---,0.01,VWS V13.01,2013-02-08 13:50:00,
2013-02-08 05:55:00,37.7,35.0,24.65,SSW,211,0.0,0.0,90,0.00,,---,0.01,VWS V13.01,2013-02-08 13:55:00,
2013-02-08 06:00:00,37.5,34.8,24.65,SSW,211,0.0,0.0,90,0.00,,---,0.01,VWS V13.01,2013-02-08 14:00:00,
2013-02-08 06:05:00,37.4,34.7,24.65,SSW,211,0.0,0.0,90,0.00,,---,0.01,VWS V13.01,2013-02-08 14:05:00,
2013-02-08 06:10:00,37.3,34.6,24.69,SSW,211,0.0,0.0,90,0.00,,---,0.01,VWS V13.01,2013-02-08 14:10:00,
2013-02-08 06:15:00,37.2,34.5,24.73,SSW,211,0.0,0.0,90,0.00,,---,0.01,VWS V13.01,2013-02-08 14:15:00,
2013-02-08 06:20:00,37.1,34.4,24.80,SSW,211,0.0,0.0,90,0.00,,---,0.01,VWS V13.01,2013-02-08 14:20:00,
2013-02-08 06:25:00,37.0,34.3,24.80,SSW,211,0.0,0.0,90,0.00,,---,0.01,VWS V13.01,2013-02-08 14:25:00,
2013-02-08 06:30:00,36.9,34.2,24.80,SSW,211,0.0,0.0,90,0.00,,---,0.01,VWS V13.01,2013-02-08 14:30:00,
2013-02-08 06:35:00,37.0,34.6,24.80,SSW,211,0.0,0.0,91,0.00,,---,0.01,VWS V13.01,2013-02-08 14:35:00,
2013-02-08 06:40:00,37.0,34.6,24.80,SSW,211,0.0,0.0,91,0.00,,---,0.01,VWS V13.01,2013-02-08 14:40:00,
2013-02-08 06:45:00,36.9,34.5,24.80,SSW,211,0.0,0.0,91,0.00,,---,0.01,VWS V13.01,2013-02-08 14:45:00,
2013-02-08 06:50:00,36.8,34.2,24.80,SSW,211,0.0,0.0,90,0.00,,---,0.01,VWS V13.01,2013-02-08 14:50:00,
2013-02-08 06:55:00,36.7,34.0,24.80,SSW,211,0.0,0.0,90,0.00,,---,0.01,VWS V13.01,2013-02-08 14:55:00,
2013-02-08 07:00:00,36.5,33.8,24.80,SSW,211,0.0,0.0,90,0.00,,---,0.01,VWS V13.01,2013-02-08 15:00:00,
2013-02-08 07:05:00,36.4,33.8,24.80,SSW,211,0.0,0.0,90,0.00,,---,0.01,VWS V13.01,2013-02-08 15:05:00,
2013-02-08 07:10:00,36.3,33.7,28.50,SSW,211,0.0,0.0,90,0.00,,---,0.01,VWS V13.01,2013-02-08 15:10:00,
2013-02-08 07:15:00,36.3,33.9,28.50,SSW,211,0.0,0.0,91,0.00,,---,0.01,VWS V13.01,2013-02-08 15:15:00,
2013-02-08 07:20:00,36.2,33.8,24.80,SSW,211,0.0,0.0,91,0.00,,---,0.01,VWS V13.01,2013-02-08 15:20:00,
2013-02-08 07:25:00,36.2,33.6,24.80,SSW,211,0.0,0.0,90,0.00,,---,0.01,VWS V13.01,2013-02-08 15:25:00,
2013-02-08 07:30:00,36.2,33.6,21.47,SSW,211,0.0,0.0,90,0.00,,---,0.01,VWS V13.01,2013-02-08 15:30:00,
2013-02-08 07:35:00,36.2,33.8,21.47,SSW,211,0.0,0.0,91,0.00,,---,0.01,VWS V13.01,2013-02-08 15:35:00,
2013-02-08 07:40:00,36.2,33.8,21.47,SSW,211,0.0,0.0,91,0.00,,---,0.01,VWS V13.01,2013-02-08 15:40:00,
2013-02-08 07:45:00,36.2,33.8,21.47,SSW,211,0.0,0.0,91,0.00,,---,0.01,VWS V13.01,2013-02-08 15:45:00,
2013-02-08 07:50:00,36.5,34.1,21.47,SSW,211,0.0,0.0,91,0.00,,---,0.01,VWS V13.01,2013-02-08 15:50:00,
2013-02-08 07:55:00,36.8,34.4,24.80,SSW,211,0.0,0.0,91,0.00,,---,0.01,VWS V13.01,2013-02-08 15:55:00,
2013-02-08 08:00:00,37.0,34.6,24.80,SSW,211,0.0,0.0,91,0.00,,---,0.01,VWS V13.01,2013-02-08 16:00:00,
2013-02-08 08:05:00,37.1,34.7,24.80,SSW,211,0.0,0.0,91,0.00,,---,0.01,VWS V13.01,2013-02-08 16:05:00,
2013-02-08 08:10:00,37.3,34.9,24.80,SSW,211,0.0,0.0,91,0.00,,---,0.01,VWS V13.01,2013-02-08 16:10:00,
2013-02-08 08:15:00,37.5,35.1,24.80,SSW,211,0.0,1.0,91,0.00,,---,0.01,VWS V13.01,2013-02-08 16:15:00,
2013-02-08 08:20:00,37.8,35.4,24.80,SSW,211,0.0,1.0,91,0.00,,---,0.01,VWS V13.01,2013-02-08 16:20:00,
2013-02-08 08:25:00,38.1,35.7,24.80,SSW,211,0.0,1.0,91,0.00,,---,0.01,VWS V13.01,2013-02-08 16:25:00,
2013-02-08 08:30:00,38.2,35.8,24.80,SSW,211,0.0,1.0,91,0.00,,---,0.01,VWS V13.01,2013-02-08 16:30:00,
2013-02-08 08:35:00,38.4,36.0,24.80,SSW,211,0.0,1.0,91,0.00,,---,0.01,VWS V13.01,2013-02-08 16:35:00,
2013-02-08 08:40:00,38.7,36.6,24.80,SSW,211,0.0,1.0,92,0.00,,---,0.01,VWS V13.01,2013-02-08 16:40:00,
2013-02-08 08:45:00,39.1,36.7,24.80,SSW,211,0.0,1.0,91,0.00,,---,0.01,VWS V13.01,2013-02-08 16:45:00,
2013-02-08 08:50:00,39.6,37.5,24.80,SSW,211,0.0,1.0,92,0.00,,---,0.01,VWS V13.01,2013-02-08 16:50:00,
2013-02-08 08:55:00,40.2,38.1,24.80,SSW,211,0.0,1.0,92,0.00,,---,0.01,VWS V13.01,2013-02-08 16:55:00,
2013-02-08 09:00:00,40.7,38.6,24.80,SSW,211,0.0,1.0,92,0.00,,---,0.01,VWS V13.01,2013-02-08 17:00:00,
2013-02-08 09:05:00,41.2,39.1,24.80,SSW,211,0.0,0.0,92,0.00,,---,0.01,VWS V13.01,2013-02-08 17:05:00,
2013-02-08 09:10:00,41.6,39.5,24.80,SSW,211,0.0,0.0,92,0.00,,---,0.01,VWS V13.01,2013-02-08 17:10:00,
2013-02-08 09:15:00,41.9,39.8,24.80,SSW,211,0.0,0.0,92,0.00,,---,0.01,VWS V13.01,2013-02-08 17:15:00,
2013-02-08 09:20:00,42.3,40.2,24.80,SSW,211,0.0,1.0,92,0.00,,---,0.01,VWS V13.01,2013-02-08 17:20:00,
2013-02-08 09:25:00,42.6,40.2,24.80,SSW,211,0.0,1.0,91,0.00,,---,0.01,VWS V13.01,2013-02-08 17:25:00,
2013-02-08 09:30:00,43.0,40.3,24.80,SSW,211,0.0,1.0,90,0.00,,---,0.01,VWS V13.01,2013-02-08 17:30:00,
2013-02-08 09:35:00,43.4,40.4,24.80,SSW,211,0.0,1.0,89,0.00,,---,0.01,VWS V13.01,2013-02-08 17:35:00,
2013-02-08 09:40:00,43.6,40.3,24.80,SSW,211,0.0,1.0,88,0.00,,---,0.01,VWS V13.01,2013-02-08 17:40:00,
2013-02-08 09:45:00,44.1,40.5,24.80,SSW,211,0.0,1.0,87,0.00,,---,0.01,VWS V13.01,2013-02-08 17:45:00,
2013-02-08 09:50:00,44.7,40.5,24.80,SSW,211,0.0,1.0,85,0.00,,---,0.01,VWS V13.01,2013-02-08 17:50:00,
2013-02-08 09:55:00,45.1,40.6,24.80,SSW,211,0.0,1.0,84,0.00,,---,0.01,VWS V13.01,2013-02-08 17:55:00,
2013-02-08 10:00:00,45.5,41.0,24.80,SSW,207,0.0,1.0,84,0.00,,---,0.01,VWS V13.01,2013-02-08 18:00:00,
2013-02-08 10:05:00,46.1,41.2,24.80,SSW,207,0.0,0.0,83,0.00,,---,0.01,VWS V13.01,2013-02-08 18:05:00,
2013-02-08 10:10:00,46.7,40.5,24.80,SE,130,0.0,3.0,79,0.00,,---,0.01,VWS V13.01,2013-02-08 18:10:00,
2013-02-08 10:15:00,47.3,40.8,24.80,ENE,60,3.0,6.0,78,0.00,,---,0.01,VWS V13.01,2013-02-08 18:15:00,
2013-02-08 10:20:00,47.8,39.9,24.80,East,80,4.0,7.0,74,0.00,,---,0.01,VWS V13.01,2013-02-08 18:20:00,
2013-02-08 10:25:00,48.1,40.2,24.80,ENE,72,3.0,7.0,74,0.00,,---,0.01,VWS V13.01,2013-02-08 18:25:00,
2013-02-08 10:30:00,48.5,40.2,24.80,East,88,3.0,7.0,73,0.00,,---,0.01,VWS V13.01,2013-02-08 18:30:00,
2013-02-08 10:35:00,48.6,39.6,24.80,East,82,0.0,7.0,71,0.00,,---,0.01,VWS V13.01,2013-02-08 18:35:00,
2013-02-08 10:41:00,48.7,39.7,24.80,ENE,71,3.0,7.0,71,0.00,,---,0.01,VWS V13.01,2013-02-08 18:41:00,
2013-02-08 10:46:00,48.9,39.6,24.80,NE,53,3.0,9.0,70,0.00,,---,0.01,VWS V13.01,2013-02-08 18:46:00,
2013-02-08 10:51:00,49.2,39.5,24.80,ENE,71,2.0,9.0,69,0.00,,---,0.01,VWS V13.01,2013-02-08 18:51:00,
2013-02-08 10:56:00,49.4,39.3,24.80,NW,308,3.0,9.0,68,0.00,,---,0.01,VWS V13.01,2013-02-08 18:56:00,
2013-02-08 11:00:00,49.6,39.9,24.80,NE,46,1.0,9.0,69,0.00,,---,0.01,VWS V13.01,2013-02-08 19:00:00,
2013-02-08 11:05:00,49.6,39.5,24.80,East,91,2.0,8.0,68,0.00,,---,0.01,VWS V13.01,2013-02-08 19:05:00,
2013-02-08 11:10:00,49.9,39.8,24.80,East,88,1.0,8.0,68,0.00,,---,0.01,VWS V13.01,2013-02-08 19:10:00,
2013-02-08 11:15:00,50.1,38.8,24.80,NW,321,0.0,8.0,65,0.00,,---,0.01,VWS V13.01,2013-02-08 19:15:00,
2013-02-08 11:20:00,50.3,39.0,24.80,ENE,58,0.0,9.0,65,0.00,,---,0.01,VWS V13.01,2013-02-08 19:20:00,
2013-02-08 11:25:00,50.4,38.7,24.80,East,81,4.0,9.0,64,0.00,,---,0.01,VWS V13.01,2013-02-08 19:25:00,
2013-02-08 11:30:00,50.7,39.8,24.80,SE,134,0.0,9.0,66,0.00,,---,0.01,VWS V13.01,2013-02-08 19:30:00,
2013-02-08 11:35:00,51.0,39.3,24.80,NE,55,2.0,9.0,64,0.00,,---,0.01,VWS V13.01,2013-02-08 19:35:00,
2013-02-08 11:40:00,51.3,39.2,24.80,NNW,327,0.0,9.0,63,0.00,,---,0.01,VWS V13.01,2013-02-08 19:40:00,
2013-02-08 11:45:00,51.3,40.0,24.80,ESE,113,3.0,9.0,65,0.00,,---,0.01,VWS V13.01,2013-02-08 19:45:00,
2013-02-08 11:50:00,51.5,40.1,24.80,SSE,156,1.0,9.0,65,0.00,,---,0.01,VWS V13.01,2013-02-08 19:50:00,
2013-02-08 11:55:00,51.7,39.9,24.80,East,84,4.0,9.0,64,0.00,,---,0.01,VWS V13.01,2013-02-08 19:55:00,
2013-02-08 12:00:00,51.8,40.0,24.80,SE,127,0.0,9.0,64,0.00,,---,0.01,VWS V13.01,2013-02-08 20:00:00,
2013-02-08 12:05:00,52.2,39.6,24.80,ESE,108,0.0,7.0,62,0.00,,---,0.01,VWS V13.01,2013-02-08 20:05:00,
2013-02-08 12:10:00,52.5,40.7,24.80,ESE,111,5.0,7.0,64,0.00,,---,0.01,VWS V13.01,2013-02-08 20:10:00,
2013-02-08 12:15:00,52.7,40.5,24.80,East,94,0.0,9.0,63,0.00,,---,0.01,VWS V13.01,2013-02-08 20:15:00,
2013-02-08 12:20:00,52.8,40.6,24.80,East,86,0.0,9.0,63,0.00,,---,0.01,VWS V13.01,2013-02-08 20:20:00,
2013-02-08 12:25:00,52.6,40.4,24.80,ENE,60,2.0,9.0,63,0.00,,---,0.01,VWS V13.01,2013-02-08 20:25:00,
2013-02-08 12:30:00,52.6,40.4,24.80,ENE,72,2.0,9.0,63,0.00,,---,0.01,VWS V13.01,2013-02-08 20:30:00,
2013-02-08 12:35:00,52.8,39.3,24.80,NE,55,0.0,9.0,60,0.00,,---,0.01,VWS V13.01,2013-02-08 20:35:00,
2013-02-08 12:40:00,53.1,39.2,24.80,North,350,1.0,9.0,59,0.00,,---,0.01,VWS V13.01,2013-02-08 20:40:00,
2013-02-08 12:45:00,53.7,39.7,24.80,WNW,290,2.0,9.0,59,0.00,,---,0.01,VWS V13.01,2013-02-08 20:45:00,
2013-02-08 12:50:00,54.0,39.6,24.80,NE,56,0.0,9.0,58,0.00,,---,0.01,VWS V13.01,2013-02-08 20:50:00,
2013-02-08 12:55:00,54.1,39.7,24.80,West,272,2.0,9.0,58,0.00,,---,0.01,VWS V13.01,2013-02-08 20:55:00,
2013-02-08 13:00:00,54.0,39.6,24.80,West,273,0.0,9.0,58,0.00,,---,0.01,VWS V13.01,2013-02-08 21:00:00,
2013-02-08 13:05:00,54.4,38.1,24.80,NE,43,0.0,7.0,54,0.00,,---,0.01,VWS V13.01,2013-02-08 21:05:00,
2013-02-08 13:10:00,54.4,38.1,24.80,ENE,59,0.0,7.0,54,0.00,,---,0.01,VWS V13.01,2013-02-08 21:10:00,
2013-02-08 13:15:00,54.7,38.4,24.80,ENE,59,0.0,7.0,54,0.00,,---,0.01,VWS V13.01,2013-02-08 21:15:00,
2013-02-08 13:20:00,55.1,39.2,24.80,West,273,2.0,7.0,55,0.00,,---,0.01,VWS V13.01,2013-02-08 21:20:00,
2013-02-08 13:25:00,55.1,38.8,24.80,WNW,291,0.0,7.0,54,0.00,,---,0.01,VWS V13.01,2013-02-08 21:25:00,
2013-02-08 13:30:00,55.3,39.0,24.80,NNE,32,0.0,7.0,54,0.00,,---,0.01,VWS V13.01,2013-02-08 21:30:00,
2013-02-08 13:35:00,55.3,39.4,24.80,WNW,298,0.0,7.0,55,0.00,,---,0.01,VWS V13.01,2013-02-08 21:35:00,
2013-02-08 13:40:00,55.3,39.4,24.80,NW,315,2.0,10.0,55,0.00,,---,0.01,VWS V13.01,2013-02-08 21:40:00,
2013-02-08 13:45:00,55.3,39.4,24.80,WNW,292,0.0,10.0,55,0.00,,---,0.01,VWS V13.01,2013-02-08 21:45:00,
2013-02-08 13:50:00,55.7,39.3,24.80,West,263,7.0,10.0,54,0.00,,---,0.01,VWS V13.01,2013-02-08 21:50:00,
2013-02-08 13:55:00,56.4,40.9,24.80,ESE,115,2.0,10.0,56,0.00,,---,0.01,VWS V13.01,2013-02-08 21:55:00,
2013-02-08 14:00:00,56.9,39.0,24.80,NNW,346,3.0,10.0,51,0.00,,---,0.01,VWS V13.01,2013-02-08 22:00:00,
2013-02-08 14:05:00,56.9,39.0,24.80,NW,313,1.0,8.0,51,0.00,,---,0.01,VWS V13.01,2013-02-08 22:05:00,
2013-02-08 14:10:00,56.9,38.5,24.80,North,360,3.0,10.0,50,0.00,,---,0.01,VWS V13.01,2013-02-08 22:10:00,
2013-02-08 14:15:00,56.7,37.2,24.80,NNW,334,5.0,10.0,48,0.00,,---,0.01,VWS V13.01,2013-02-08 22:15:00,
2013-02-08 14:20:00,56.5,39.1,24.80,NNW,332,5.0,10.0,52,0.00,,---,0.01,VWS V13.01,2013-02-08 22:20:00,
2013-02-08 14:25:00,56.3,40.4,24.80,NW,318,11.0,14.0,55,0.00,,---,0.01,VWS V13.01,2013-02-08 22:25:00,
2013-02-08 14:30:00,56.5,40.1,24.80,NW,304,3.0,14.0,54,0.00,,---,0.01,VWS V13.01,2013-02-08 22:30:00,
2013-02-08 14:35:00,56.1,39.7,24.80,NW,314,3.0,14.0,54,0.00,,---,0.01,VWS V13.01,2013-02-08 22:35:00,
2013-02-08 14:40:00,56.0,40.5,24.80,NW,315,6.0,14.0,56,0.00,,---,0.01,VWS V13.01,2013-02-08 22:40:00,
2013-02-08 14:45:00,55.8,40.4,24.80,West,281,3.0,14.0,56,0.00,,---,0.01,VWS V13.01,2013-02-08 22:45:00,
2013-02-08 14:50:00,56.1,40.2,24.80,NW,317,11.0,14.0,55,0.00,,---,0.01,VWS V13.01,2013-02-08 22:50:00,
2013-02-08 14:55:00,56.2,40.3,24.80,NW,312,4.0,14.0,55,0.00,,---,0.01,VWS V13.01,2013-02-08 22:55:00,
2013-02-08 15:00:00,56.4,40.5,24.80,NNW,345,5.0,14.0,55,0.00,,---,0.01,VWS V13.01,2013-02-08 23:00:00,
2013-02-08 15:05:00,56.0,40.1,24.80,NNE,26,3.0,12.0,55,0.00,,---,0.01,VWS V13.01,2013-02-08 23:05:00,
2013-02-08 15:10:00,55.6,39.7,24.80,NW,307,3.0,14.0,55,0.00,,---,0.01,VWS V13.01,2013-02-08 23:10:00,
2013-02-08 15:15:00,55.3,39.9,24.80,WNW,288,6.0,14.0,56,0.00,,---,0.01,VWS V13.01,2013-02-08 23:15:00,
2013-02-08 15:20:00,55.4,39.5,24.80,West,265,6.0,15.0,55,0.00,,---,0.01,VWS V13.01,2013-02-08 23:20:00,
2013-02-08 15:25:00,55.4,39.5,24.80,West,280,4.0,15.0,55,0.00,,---,0.01,VWS V13.01,2013-02-08 23:25:00,
2013-02-08 15:30:00,55.3,39.4,24.80,WNW,300,2.0,18.0,55,0.00,,---,0.01,VWS V13.01,2013-02-08 23:30:00,
2013-02-08 15:35:00,55.3,39.4,24.80,NNW,327,3.0,18.0,55,0.00,,---,0.01,VWS V13.01,2013-02-08 23:35:00,
2013-02-08 15:40:00,55.5,40.1,24.80,NE,55,2.0,18.0,56,0.00,,---,0.01,VWS V13.01,2013-02-08 23:40:00,
2013-02-08 15:45:00,55.6,39.7,24.80,WNW,286,7.0,18.0,55,0.00,,---,0.01,VWS V13.01,2013-02-08 23:45:00,
2013-02-08 15:50:00,55.3,39.9,24.80,West,279,0.0,18.0,56,0.00,,---,0.01,VWS V13.01,2013-02-08 23:50:00,
2013-02-08 15:55:00,55.3,39.9,24.80,NNW,343,0.0,18.0,56,0.00,,---,0.01,VWS V13.01,2013-02-08 23:55:00,
2013-02-08 16:00:00,55.4,40.9,24.80,West,265,0.0,18.0,58,0.00,,---,0.01,VWS V13.01,2013-02-09 00:00:00,
2013-02-08 16:05:00,55.2,40.7,24.80,NW,322,2.0,7.0,58,0.00,,---,0.01,VWS V13.01,2013-02-09 00:05:00,
2013-02-08 16:10:00,55.2,41.1,24.80,West,272,6.0,11.0,59,0.00,,---,0.01,VWS V13.01,2013-02-09 00:10:00,
2013-02-08 16:15:00,54.8,41.6,24.80,WNW,291,3.0,13.0,61,0.00,,---,0.01,VWS V13.01,2013-02-09 00:15:00,
2013-02-08 16:20:00,54.6,41.4,24.80,WNW,292,0.0,13.0,61,0.00,,---,0.01,VWS V13.01,2013-02-09 00:20:00,
2013-02-08 16:25:00,54.6,41.4,24.80,WNW,296,7.0,13.0,61,0.00,,---,0.01,VWS V13.01,2013-02-09 00:25:00,
2013-02-08 16:30:00,54.6,41.4,24.80,West,279,8.0,13.0,61,0.00,,---,0.01,VWS V13.01,2013-02-09 00:30:00,
2013-02-08 16:35:00,54.6,41.4,24.80,West,277,0.0,13.0,61,0.00,,---,0.01,VWS V13.01,2013-02-09 00:35:00,
2013-02-08 16:40:00,54.8,41.2,24.80,North,355,0.0,13.0,60,0.00,,---,0.01,VWS V13.01,2013-02-09 00:40:00,
2013-02-08 16:45:00,54.9,41.3,24.80,WNW,298,5.0,13.0,60,0.00,,---,0.01,VWS V13.01,2013-02-09 00:45:00,
2013-02-08 16:50:00,54.9,41.3,24.80,WNW,294,0.0,13.0,60,0.00,,---,0.01,VWS V13.01,2013-02-09 00:50:00,
2013-02-08 16:55:00,54.8,41.2,24.80,North,360,0.0,13.0,60,0.00,,---,0.01,VWS V13.01,2013-02-09 00:55:00,
2013-02-08 17:00:00,54.7,41.5,24.80,NW,309,0.0,13.0,61,0.00,,---,0.01,VWS V13.01,2013-02-09 01:00:00,
2013-02-08 17:05:00,54.5,41.8,24.80,NNW,332,2.0,9.0,62,0.00,,---,0.01,VWS V13.01,2013-02-09 01:05:00,
2013-02-08 17:10:00,54.3,41.6,24.80,West,260,0.0,9.0,62,0.00,,---,0.01,VWS V13.01,2013-02-09 01:10:00,
2013-02-08 17:15:00,54.1,41.8,24.80,NW,325,0.0,9.0,63,0.00,,---,0.01,VWS V13.01,2013-02-09 01:15:00,
2013-02-08 17:20:00,53.6,41.7,24.80,West,261,3.0,9.0,64,0.00,,---,0.01,VWS V13.01,2013-02-09 01:20:00,
2013-02-08 17:25:00,53.1,41.7,24.80,NW,315,1.0,9.0,65,0.00,,---,0.01,VWS V13.01,2013-02-09 01:25:00,
2013-02-08 17:30:00,52.5,41.9,24.80,NW,315,5.0,9.0,67,0.00,,---,0.01,VWS V13.01,2013-02-09 01:30:00,
2013-02-08 17:35:00,52.0,41.8,24.80,WNW,288,0.0,9.0,68,0.00,,---,0.01,VWS V13.01,2013-02-09 01:35:00,
2013-02-08 17:40:00,51.7,41.9,24.80,WNW,296,1.0,9.0,69,0.00,,---,0.01,VWS V13.01,2013-02-09 01:40:00,
2013-02-08 17:45:00,51.4,42.0,24.80,WNW,290,2.0,10.0,70,0.00,,---,0.01,VWS V13.01,2013-02-09 01:45:00,
2013-02-08 17:50:00,51.2,42.1,24.80,NW,310,3.0,10.0,71,0.00,,---,0.01,VWS V13.01,2013-02-09 01:50:00,
2013-02-08 17:55:00,50.9,41.8,24.80,NNW,342,0.0,10.0,71,0.00,,---,0.01,VWS V13.01,2013-02-09 01:55:00,
2013-02-08 18:00:00,50.8,42.1,24.80,WNW,288,0.0,10.0,72,0.00,,---,0.01,VWS V13.01,2013-02-09 02:00:00,
2013-02-08 18:05:00,50.6,41.9,24.80,NNW,348,3.0,5.0,72,0.00,,---,0.01,VWS V13.01,2013-02-09 02:05:00,
2013-02-08 18:10:00,50.5,41.8,24.80,WNW,290,1.0,7.0,72,0.00,,---,0.01,VWS V13.01,2013-02-09 02:10:00,
2013-02-08 18:15:00,50.3,42.0,24.80,WNW,300,0.0,9.0,73,0.00,,---,0.01,VWS V13.01,2013-02-09 02:15:00,
2013-02-08 18:20:00,50.1,42.2,24.80,WNW,300,0.0,9.0,74,0.00,,---,0.01,VWS V13.01,2013-02-09 02:20:00,
2013-02-08 18:25:00,49.9,42.0,24.80,WSW,242,0.0,9.0,74,0.00,,---,0.01,VWS V13.01,2013-02-09 02:25:00,
2013-02-08 18:30:00,49.7,41.8,24.80,WSW,252,0.0,9.0,74,0.00,,---,0.01,VWS V13.01,2013-02-09 02:30:00,
2013-02-08 18:35:00,49.4,41.8,24.80,WSW,252,0.0,9.0,75,0.00,,---,0.01,VWS V13.01,2013-02-09 02:35:00,
2013-02-08 18:40:00,49.1,41.5,24.80,WSW,252,0.0,9.0,75,0.00,,---,0.01,VWS V13.01,2013-02-09 02:40:00,
2013-02-08 18:45:00,48.8,41.6,24.80,WSW,252,0.0,9.0,76,0.00,,---,0.01,VWS V13.01,2013-02-09 02:45:00,
2013-02-08 18:50:00,48.5,41.3,24.80,WSW,252,0.0,9.0,76,0.00,,---,0.01,VWS V13.01,2013-02-09 02:50:00,
2013-02-08 18:55:00,48.2,41.3,24.80,WSW,252,0.0,9.0,77,0.00,,---,0.01,VWS V13.01,2013-02-09 02:55:00,
2013-02-08 19:00:00,47.8,41.3,24.80,WSW,250,0.0,9.0,78,0.00,,---,0.01,VWS V13.01,2013-02-09 03:00:00,
2013-02-08 19:05:00,47.6,41.1,24.80,WSW,250,0.0,0.0,78,0.00,,---,0.01,VWS V13.01,2013-02-09 03:05:00,
2013-02-08 19:10:00,47.3,41.1,24.80,WSW,250,0.0,1.0,79,0.00,,---,0.01,VWS V13.01,2013-02-09 03:10:00,
2013-02-08 19:15:00,47.1,40.9,24.80,WSW,250,0.0,1.0,79,0.00,,---,0.01,VWS V13.01,2013-02-09 03:15:00,
2013-02-08 19:20:00,46.9,40.7,24.80,WSW,250,0.0,1.0,79,0.00,,---,0.01,VWS V13.01,2013-02-09 03:20:00,
2013-02-08 19:25:00,46.6,40.5,24.80,WSW,250,0.0,1.0,79,0.00,,---,0.01,VWS V13.01,2013-02-09 03:25:00,
2013-02-08 19:30:00,46.3,40.5,24.80,WSW,250,0.0,1.0,80,0.00,,---,0.01,VWS V13.01,2013-02-09 03:30:00,
2013-02-08 19:35:00,46.0,40.2,24.80,WSW,250,0.0,1.0,80,0.00,,---,0.01,VWS V13.01,2013-02-09 03:35:00,
2013-02-08 19:40:00,45.6,40.1,24.80,WSW,250,0.0,1.0,81,0.00,,---,0.01,VWS V13.01,2013-02-09 03:40:00,
2013-02-08 19:45:00,45.2,39.7,24.80,WSW,250,0.0,1.0,81,0.00,,---,0.01,VWS V13.01,2013-02-09 03:45:00,
2013-02-08 19:50:00,45.0,39.5,24.80,WSW,250,0.0,1.0,81,0.00,,---,0.01,VWS V13.01,2013-02-09 03:50:00,
2013-02-08 19:55:00,44.7,39.2,24.80,WSW,250,0.0,1.0,81,0.00,,---,0.01,VWS V13.01,2013-02-09 03:55:00,
2013-02-08 20:00:00,44.4,39.3,24.80,WSW,250,0.0,1.0,82,0.00,,---,0.01,VWS V13.01,2013-02-09 04:00:00,
2013-02-08 20:05:00,44.2,39.1,24.80,WSW,250,0.0,0.0,82,0.00,,---,0.01,VWS V13.01,2013-02-09 04:05:00,
2013-02-08 20:10:00,44.1,38.7,24.80,WSW,250,0.0,0.0,81,0.00,,---,0.01,VWS V13.01,2013-02-09 04:10:00,
2013-02-08 20:15:00,44.5,38.1,24.80,WSW,249,2.0,3.0,78,0.00,,---,0.01,VWS V13.01,2013-02-09 04:15:00,
2013-02-08 20:20:00,45.6,38.2,24.80,WSW,257,0.0,4.0,75,0.00,,---,0.01,VWS V13.01,2013-02-09 04:20:00,
2013-02-08 20:25:00,46.9,38.4,24.80,WSW,250,0.0,4.0,72,0.00,,---,0.01,VWS V13.01,2013-02-09 04:25:00,
2013-02-08 20:30:00,47.7,38.0,24.80,East,80,0.0,4.0,69,0.00,,---,0.01,VWS V13.01,2013-02-09 04:30:00,
2013-02-08 20:35:00,48.7,38.2,24.80,ENE,57,0.0,4.0,67,0.00,,---,0.01,VWS V13.01,2013-02-09 04:35:00,
2013-02-08 20:40:00,49.1,38.2,24.80,ENE,58,0.0,4.0,66,0.00,,---,0.01,VWS V13.01,2013-02-09 04:40:00,
2013-02-08 20:45:00,49.1,37.9,24.80,ENE,58,0.0,4.0,65,0.00,,---,0.01,VWS V13.01,2013-02-09 04:45:00,
2013-02-08 20:50:00,48.9,37.7,24.80,ENE,59,0.0,4.0,65,0.00,,---,0.01,VWS V13.01,2013-02-09 04:50:00,
2013-02-08 20:55:00,48.5,38.1,24.80,ENE,59,0.0,4.0,67,0.00,,---,0.01,VWS V13.01,2013-02-09 04:55:00,
2013-02-08 21:00:00,48.2,36.2,24.80,East,81,0.0,10.0,63,0.00,,---,0.01,VWS V13.01,2013-02-09 05:00:00,
2013-02-08 21:05:00,48.3,36.3,24.80,East,82,0.0,1.0,63,0.00,,---,0.01,VWS V13.01,2013-02-09 05:05:00,
2013-02-08 21:10:00,48.3,35.9,24.80,East,82,0.0,1.0,62,0.00,,---,0.01,VWS V13.01,2013-02-09 05:10:00,
2013-02-08 21:15:00,48.5,35.7,24.80,East,82,0.0,1.0,61,0.00,,---,0.01,VWS V13.01,2013-02-09 05:15:00,
2013-02-08 21:20:00,48.8,35.1,24.80,East,81,0.0,3.0,59,0.00,,---,0.01,VWS V13.01,2013-02-09 05:20:00,
2013-02-08 21:25:00,49.1,34.5,24.80,East,81,0.0,3.0,57,0.00,,---,0.01,VWS V13.01,2013-02-09 05:25:00,
2013-02-08 21:30:00,49.4,34.4,24.80,East,80,3.0,5.0,56,0.00,,---,0.01,VWS V13.01,2013-02-09 05:30:00,
2013-02-08 21:35:00,49.8,33.8,24.80,ENE,60,3.0,7.0,54,0.00,,---,0.01,VWS V13.01,2013-02-09 05:35:00,
2013-02-08 21:40:00,50.0,33.6,24.80,East,88,1.0,9.0,53,0.00,,---,0.01,VWS V13.01,2013-02-09 05:40:00,
2013-02-08 21:45:00,50.2,33.3,24.80,East,83,1.0,9.0,52,0.00,,---,0.01,VWS V13.01,2013-02-09 05:45:00,
2013-02-08 21:50:00,50.2,32.8,24.80,ENE,70,2.0,9.0,51,0.00,,---,0.01,VWS V13.01,2013-02-09 05:50:00,
2013-02-08 21:55:00,50.5,32.6,24.80,ENE,76,1.0,9.0,50,0.00,,---,0.01,VWS V13.01,2013-02-09 05:55:00,
2013-02-08 22:00:00,50.5,32.1,24.80,East,100,1.0,9.0,49,0.00,,---,0.01,VWS V13.01,2013-02-09 06:00:00,
2013-02-08 22:05:00,50.6,32.2,24.80,East,91,1.0,3.0,49,0.00,,---,0.01,VWS V13.01,2013-02-09 06:05:00,
2013-02-08 22:10:00,50.3,32.4,24.80,ESE,110,0.0,3.0,50,0.00,,---,0.01,VWS V13.01,2013-02-09 06:10:00,
2013-02-08 22:15:00,50.1,31.7,24.80,ESE,108,0.0,3.0,49,0.00,,---,0.01,VWS V13.01,2013-02-09 06:15:00,
2013-02-08 22:20:00,49.9,32.0,24.80,ESE,108,0.0,3.0,50,0.00,,---,0.01,VWS V13.01,2013-02-09 06:20:00,
2013-02-08 22:25:00,49.5,33.6,24.80,ESE,108,0.0,3.0,54,0.00,,---,0.01,VWS V13.01,2013-02-09 06:25:00,
2013-02-08 22:30:00,48.9,33.9,24.80,ESE,107,0.0,3.0,56,0.00,,---,0.01,VWS V13.01,2013-02-09 06:30:00,
2013-02-08 22:35:00,48.2,34.6,24.80,ESE,108,0.0,3.0,59,0.00,,---,0.01,VWS V13.01,2013-02-09 06:35:00,
2013-02-08 22:40:00,47.5,33.9,24.80,ESE,108,0.0,3.0,59,0.00,,---,0.01,VWS V13.01,2013-02-09 06:40:00,
2013-02-08 22:45:00,46.8,34.1,24.80,ESE,108,0.0,3.0,61,0.00,,---,0.01,VWS V13.01,2013-02-09 06:45:00,
2013-02-08 22:50:00,46.1,33.4,24.80,ESE,107,0.0,3.0,61,0.00,,---,0.01,VWS V13.01,2013-02-09 06:50:00,
2013-02-08 22:55:00,45.6,33.8,24.80,ESE,108,0.0,3.0,63,0.00,,---,0.01,VWS V13.01,2013-02-09 06:55:00,
2013-02-08 23:00:00,45.1,33.7,24.80,ESE,108,0.0,3.0,64,0.00,,---,0.01,VWS V13.01,2013-02-09 07:00:00,
2013-02-08 23:05:00,44.7,32.1,24.80,SE,133,0.0,4.0,61,0.00,,---,0.01,VWS V13.01,2013-02-09 07:05:00,
2013-02-08 23:10:00,44.7,31.7,24.80,SE,132,0.0,4.0,60,0.00,,---,0.01,VWS V13.01,2013-02-09 07:10:00,
2013-02-08 23:15:00,44.7,31.7,24.80,SE,132,0.0,4.0,60,0.00,,---,0.01,VWS V13.01,2013-02-09 07:15:00,
2013-02-08 23:20:00,44.7,31.7,24.80,SE,132,0.0,4.0,60,0.00,,---,0.01,VWS V13.01,2013-02-09 07:20:00,
2013-02-08 23:25:00,44.5,31.9,24.80,SE,132,0.0,4.0,61,0.00,,---,0.01,VWS V13.01,2013-02-09 07:25:00,
2013-02-08 23:30:00,44.5,31.9,24.80,SE,132,0.0,4.0,61,0.00,,---,0.01,VWS V13.01,2013-02-09 07:30:00,
2013-02-08 23:35:00,44.4,31.4,24.80,SE,132,0.0,4.0,60,0.00,,---,0.01,VWS V13.01,2013-02-09 07:35:00,
2013-02-08 23:40:00,44.2,32.4,24.80,SE,132,0.0,4.0,63,0.00,,---,0.01,VWS V13.01,2013-02-09 07:40:00,
2013-02-08 23:45:00,44.0,33.0,24.80,SE,132,0.0,4.0,65,0.00,,---,0.01,VWS V13.01,2013-02-09 07:45:00,
2013-02-08 23:50:00,43.5,33.3,24.80,SE,132,0.0,4.0,67,0.00,,---,0.01,VWS V13.01,2013-02-09 07:50:00,
2013-02-08 23:55:00,43.1,33.3,24.80,SE,132,0.0,4.0,68,0.00,,---,0.01,VWS V13.01,2013-02-09 07:55:00,